sensor_id;sensor_type;location;lat;lon;timestamp;temperature;humidity
10903;DHT22;5504;47.312;11.060;2023-06-26T00:00:19;17.80;73.30
10903;DHT22;5504;47.312;11.060;2023-06-26T00:02:45;17.60;73.70
10903;DHT22;5504;47.312;11.060;2023-06-26T00:05:11;17.50;73.80
10903;DHT22;5504;47.312;11.060;2023-06-26T00:07:36;17.60;74.30
10903;DHT22;5504;47.312;11.060;2023-06-26T00:10:03;17.70;73.40
10903;DHT22;5504;47.312;11.060;2023-06-26T00:12:29;17.50;74.70
10903;DHT22;5504;47.312;11.060;2023-06-26T00:14:55;17.40;74.20
10903;DHT22;5504;47.312;11.060;2023-06-26T00:17:21;17.50;74.00
10903;DHT22;5504;47.312;11.060;2023-06-26T00:19:47;17.40;74.00
10903;DHT22;5504;47.312;11.060;2023-06-26T00:22:12;17.30;74.20
10903;DHT22;5504;47.312;11.060;2023-06-26T00:24:38;17.30;74.20
10903;DHT22;5504;47.312;11.060;2023-06-26T00:27:04;17.30;74.70
10903;DHT22;5504;47.312;11.060;2023-06-26T00:29:30;17.30;75.10
10903;DHT22;5504;47.312;11.060;2023-06-26T00:31:55;17.40;74.40
10903;DHT22;5504;47.312;11.060;2023-06-26T00:34:21;17.30;74.30
10903;DHT22;5504;47.312;11.060;2023-06-26T00:36:47;17.30;74.90
10903;DHT22;5504;47.312;11.060;2023-06-26T00:39:12;17.30;74.90
10903;DHT22;5504;47.312;11.060;2023-06-26T00:41:39;17.30;75.00
10903;DHT22;5504;47.312;11.060;2023-06-26T00:44:05;17.20;75.20
10903;DHT22;5504;47.312;11.060;2023-06-26T00:46:32;17.20;75.20
10903;DHT22;5504;47.312;11.060;2023-06-26T00:49:02;17.20;75.10
10903;DHT22;5504;47.312;11.060;2023-06-26T00:51:29;17.20;75.50
10903;DHT22;5504;47.312;11.060;2023-06-26T00:53:56;17.10;75.80
10903;DHT22;5504;47.312;11.060;2023-06-26T00:56:23;17.10;75.90
10903;DHT22;5504;47.312;11.060;2023-06-26T00:58:49;17.00;75.60
10903;DHT22;5504;47.312;11.060;2023-06-26T01:01:15;16.90;75.90
10903;DHT22;5504;47.312;11.060;2023-06-26T01:03:43;17.00;76.30
10903;DHT22;5504;47.312;11.060;2023-06-26T01:06:11;17.00;76.10
10903;DHT22;5504;47.312;11.060;2023-06-26T01:08:38;16.90;76.20
10903;DHT22;5504;47.312;11.060;2023-06-26T01:11:04;16.80;77.20
10903;DHT22;5504;47.312;11.060;2023-06-26T01:13:30;16.70;76.80
10903;DHT22;5504;47.312;11.060;2023-06-26T01:15:57;16.80;76.20
10903;DHT22;5504;47.312;11.060;2023-06-26T01:18:25;16.80;76.40
10903;DHT22;5504;47.312;11.060;2023-06-26T01:20:51;16.70;76.30
10903;DHT22;5504;47.312;11.060;2023-06-26T01:23:38;16.70;76.80
10903;DHT22;5504;47.312;11.060;2023-06-26T01:26:20;16.70;76.80
10903;DHT22;5504;47.312;11.060;2023-06-26T01:28:47;16.70;77.10
10903;DHT22;5504;47.312;11.060;2023-06-26T01:31:15;16.70;77.20
10903;DHT22;5504;47.312;11.060;2023-06-26T01:33:41;16.70;77.40
10903;DHT22;5504;47.312;11.060;2023-06-26T01:36:07;16.70;77.50
10903;DHT22;5504;47.312;11.060;2023-06-26T01:38:33;16.70;77.90
10903;DHT22;5504;47.312;11.060;2023-06-26T01:41:00;16.60;77.30
10903;DHT22;5504;47.312;11.060;2023-06-26T01:43:43;16.60;77.70
10903;DHT22;5504;47.312;11.060;2023-06-26T01:51:57;16.70;77.10
10903;DHT22;5504;47.312;11.060;2023-06-26T01:54:24;16.70;77.50
10903;DHT22;5504;47.312;11.060;2023-06-26T01:56:53;16.70;77.60
10903;DHT22;5504;47.312;11.060;2023-06-26T01:59:19;16.50;77.80
10903;DHT22;5504;47.312;11.060;2023-06-26T02:01:46;16.50;78.20
10903;DHT22;5504;47.312;11.060;2023-06-26T02:04:13;16.50;78.40
10903;DHT22;5504;47.312;11.060;2023-06-26T02:06:38;16.40;78.30
10903;DHT22;5504;47.312;11.060;2023-06-26T02:09:04;16.50;78.30
10903;DHT22;5504;47.312;11.060;2023-06-26T02:11:29;16.40;78.10
10903;DHT22;5504;47.312;11.060;2023-06-26T02:13:55;16.40;78.40
10903;DHT22;5504;47.312;11.060;2023-06-26T02:16:21;16.40;78.50
10903;DHT22;5504;47.312;11.060;2023-06-26T02:18:46;16.30;78.50
10903;DHT22;5504;47.312;11.060;2023-06-26T02:21:13;16.30;78.90
10903;DHT22;5504;47.312;11.060;2023-06-26T02:23:39;16.20;78.80
10903;DHT22;5504;47.312;11.060;2023-06-26T02:26:04;16.10;78.90
10903;DHT22;5504;47.312;11.060;2023-06-26T02:28:30;16.20;79.30
10903;DHT22;5504;47.312;11.060;2023-06-26T02:30:56;16.30;79.70
10903;DHT22;5504;47.312;11.060;2023-06-26T02:33:22;16.20;78.80
10903;DHT22;5504;47.312;11.060;2023-06-26T02:35:48;16.10;79.20
10903;DHT22;5504;47.312;11.060;2023-06-26T02:38:16;16.00;79.10
10903;DHT22;5504;47.312;11.060;2023-06-26T02:40:42;15.80;80.00
10903;DHT22;5504;47.312;11.060;2023-06-26T02:43:07;15.90;80.30
10903;DHT22;5504;47.312;11.060;2023-06-26T02:45:33;15.90;80.50
10903;DHT22;5504;47.312;11.060;2023-06-26T02:47:59;15.90;80.50
10903;DHT22;5504;47.312;11.060;2023-06-26T02:50:24;15.90;80.30
10903;DHT22;5504;47.312;11.060;2023-06-26T02:52:50;15.90;80.40
10903;DHT22;5504;47.312;11.060;2023-06-26T02:55:18;15.90;80.50
10903;DHT22;5504;47.312;11.060;2023-06-26T02:57:44;15.90;80.90
10903;DHT22;5504;47.312;11.060;2023-06-26T03:00:11;15.80;80.60
10903;DHT22;5504;47.312;11.060;2023-06-26T03:02:37;15.90;81.20
10903;DHT22;5504;47.312;11.060;2023-06-26T03:05:02;15.80;80.90
10903;DHT22;5504;47.312;11.060;2023-06-26T03:07:29;15.70;80.70
10903;DHT22;5504;47.312;11.060;2023-06-26T03:09:55;15.70;81.30
10903;DHT22;5504;47.312;11.060;2023-06-26T03:12:20;15.70;81.90
10903;DHT22;5504;47.312;11.060;2023-06-26T03:14:46;15.70;81.60
10903;DHT22;5504;47.312;11.060;2023-06-26T03:17:12;15.70;81.20
10903;DHT22;5504;47.312;11.060;2023-06-26T03:19:38;15.70;82.10
10903;DHT22;5504;47.312;11.060;2023-06-26T03:22:03;15.80;82.00
10903;DHT22;5504;47.312;11.060;2023-06-26T03:24:29;15.90;81.30
10903;DHT22;5504;47.312;11.060;2023-06-26T03:26:55;15.70;80.90
10903;DHT22;5504;47.312;11.060;2023-06-26T03:29:21;15.60;81.60
10903;DHT22;5504;47.312;11.060;2023-06-26T03:31:46;15.60;81.70
10903;DHT22;5504;47.312;11.060;2023-06-26T03:34:12;15.60;82.30
10903;DHT22;5504;47.312;11.060;2023-06-26T03:36:38;15.60;82.30
10903;DHT22;5504;47.312;11.060;2023-06-26T03:39:04;15.50;81.90
10903;DHT22;5504;47.312;11.060;2023-06-26T03:41:29;15.60;82.50
10903;DHT22;5504;47.312;11.060;2023-06-26T03:43:55;15.70;83.20
10903;DHT22;5504;47.312;11.060;2023-06-26T03:46:22;15.70;82.60
10903;DHT22;5504;47.312;11.060;2023-06-26T03:48:48;15.60;82.40
10903;DHT22;5504;47.312;11.060;2023-06-26T03:51:14;15.60;82.00
10903;DHT22;5504;47.312;11.060;2023-06-26T03:53:39;15.80;82.30
10903;DHT22;5504;47.312;11.060;2023-06-26T03:56:05;15.70;81.80
10903;DHT22;5504;47.312;11.060;2023-06-26T03:58:31;15.50;82.20
10903;DHT22;5504;47.312;11.060;2023-06-26T04:00:56;15.60;82.50
10903;DHT22;5504;47.312;11.060;2023-06-26T04:03:23;15.70;82.50
10903;DHT22;5504;47.312;11.060;2023-06-26T04:05:49;15.60;82.10
10903;DHT22;5504;47.312;11.060;2023-06-26T04:08:15;15.60;82.80
10903;DHT22;5504;47.312;11.060;2023-06-26T04:10:40;15.60;83.60
10903;DHT22;5504;47.312;11.060;2023-06-26T04:13:06;15.60;84.10
10903;DHT22;5504;47.312;11.060;2023-06-26T04:15:32;15.60;84.40
10903;DHT22;5504;47.312;11.060;2023-06-26T04:17:58;15.70;84.00
10903;DHT22;5504;47.312;11.060;2023-06-26T04:20:23;15.60;83.70
10903;DHT22;5504;47.312;11.060;2023-06-26T04:22:49;15.60;84.20
10903;DHT22;5504;47.312;11.060;2023-06-26T04:25:15;15.70;84.10
10903;DHT22;5504;47.312;11.060;2023-06-26T04:27:40;15.80;84.50
10903;DHT22;5504;47.312;11.060;2023-06-26T04:30:07;16.00;84.50
10903;DHT22;5504;47.312;11.060;2023-06-26T04:32:33;16.00;83.60
10903;DHT22;5504;47.312;11.060;2023-06-26T04:34:58;16.00;83.90
10903;DHT22;5504;47.312;11.060;2023-06-26T04:37:25;16.10;84.40
10903;DHT22;5504;47.312;11.060;2023-06-26T04:39:51;16.20;84.30
10903;DHT22;5504;47.312;11.060;2023-06-26T04:42:17;16.30;83.80
10903;DHT22;5504;47.312;11.060;2023-06-26T04:44:44;16.40;81.80
10903;DHT22;5504;47.312;11.060;2023-06-26T04:47:10;16.50;82.50
10903;DHT22;5504;47.312;11.060;2023-06-26T04:49:35;16.80;82.50
10903;DHT22;5504;47.312;11.060;2023-06-26T04:52:01;17.00;82.90
10903;DHT22;5504;47.312;11.060;2023-06-26T04:54:27;17.10;83.90
10903;DHT22;5504;47.312;11.060;2023-06-26T04:56:53;17.20;83.80
10903;DHT22;5504;47.312;11.060;2023-06-26T04:59:19;17.50;84.60
10903;DHT22;5504;47.312;11.060;2023-06-26T05:01:44;17.70;83.30
10903;DHT22;5504;47.312;11.060;2023-06-26T05:04:13;17.90;83.40
10903;DHT22;5504;47.312;11.060;2023-06-26T05:06:39;18.20;83.30
10903;DHT22;5504;47.312;11.060;2023-06-26T05:09:05;18.30;81.90
10903;DHT22;5504;47.312;11.060;2023-06-26T05:11:30;18.50;82.00
10903;DHT22;5504;47.312;11.060;2023-06-26T05:13:56;18.70;80.90
10903;DHT22;5504;47.312;11.060;2023-06-26T05:16:22;18.70;81.40
10903;DHT22;5504;47.312;11.060;2023-06-26T05:18:47;18.90;81.20
10903;DHT22;5504;47.312;11.060;2023-06-26T05:21:13;18.70;75.80
10903;DHT22;5504;47.312;11.060;2023-06-26T05:23:39;18.80;78.00
10903;DHT22;5504;47.312;11.060;2023-06-26T05:26:05;19.20;79.70
10903;DHT22;5504;47.312;11.060;2023-06-26T05:28:31;19.60;79.00
10903;DHT22;5504;47.312;11.060;2023-06-26T05:30:58;19.90;76.70
10903;DHT22;5504;47.312;11.060;2023-06-26T05:33:25;20.10;75.20
10903;DHT22;5504;47.312;11.060;2023-06-26T05:35:54;20.30;72.70
10903;DHT22;5504;47.312;11.060;2023-06-26T05:38:21;20.60;72.60
10903;DHT22;5504;47.312;11.060;2023-06-26T05:40:47;20.70;72.20
10903;DHT22;5504;47.312;11.060;2023-06-26T05:43:13;21.00;69.80
10903;DHT22;5504;47.312;11.060;2023-06-26T05:45:39;21.20;70.60
10903;DHT22;5504;47.312;11.060;2023-06-26T05:48:05;21.40;70.40
10903;DHT22;5504;47.312;11.060;2023-06-26T05:50:31;21.60;70.50
10903;DHT22;5504;47.312;11.060;2023-06-26T05:52:57;21.60;68.00
10903;DHT22;5504;47.312;11.060;2023-06-26T05:55:23;21.90;67.50
10903;DHT22;5504;47.312;11.060;2023-06-26T05:57:50;22.20;66.20
10903;DHT22;5504;47.312;11.060;2023-06-26T06:00:16;22.30;66.20
10903;DHT22;5504;47.312;11.060;2023-06-26T06:02:43;22.60;67.40
10903;DHT22;5504;47.312;11.060;2023-06-26T06:05:09;22.70;64.60
10903;DHT22;5504;47.312;11.060;2023-06-26T06:07:35;23.10;66.40
10903;DHT22;5504;47.312;11.060;2023-06-26T06:10:02;23.30;65.00
10903;DHT22;5504;47.312;11.060;2023-06-26T06:12:28;22.80;59.50
10903;DHT22;5504;47.312;11.060;2023-06-26T06:14:56;22.90;61.70
10903;DHT22;5504;47.312;11.060;2023-06-26T06:17:22;23.20;63.10
10903;DHT22;5504;47.312;11.060;2023-06-26T06:19:48;23.50;59.40
10903;DHT22;5504;47.312;11.060;2023-06-26T06:22:14;23.00;59.20
10903;DHT22;5504;47.312;11.060;2023-06-26T06:24:39;23.20;59.10
10903;DHT22;5504;47.312;11.060;2023-06-26T06:27:05;23.50;59.40
10903;DHT22;5504;47.312;11.060;2023-06-26T06:29:31;23.10;58.50
10903;DHT22;5504;47.312;11.060;2023-06-26T06:31:57;23.00;60.60
10903;DHT22;5504;47.312;11.060;2023-06-26T06:34:23;23.40;61.10
10903;DHT22;5504;47.312;11.060;2023-06-26T06:36:48;23.60;58.10
10903;DHT22;5504;47.312;11.060;2023-06-26T06:39:15;24.20;61.20
10903;DHT22;5504;47.312;11.060;2023-06-26T06:41:41;24.80;59.40
10903;DHT22;5504;47.312;11.060;2023-06-26T06:44:07;25.30;58.10
10903;DHT22;5504;47.312;11.060;2023-06-26T06:46:32;25.10;57.40
10903;DHT22;5504;47.312;11.060;2023-06-26T06:48:58;25.40;58.20
10903;DHT22;5504;47.312;11.060;2023-06-26T06:51:25;25.50;54.70
10903;DHT22;5504;47.312;11.060;2023-06-26T06:53:51;25.50;56.80
10903;DHT22;5504;47.312;11.060;2023-06-26T06:56:17;24.90;54.60
10903;DHT22;5504;47.312;11.060;2023-06-26T06:58:42;25.30;57.50
10903;DHT22;5504;47.312;11.060;2023-06-26T07:01:12;25.90;59.30
10903;DHT22;5504;47.312;11.060;2023-06-26T07:03:38;26.10;53.40
10903;DHT22;5504;47.312;11.060;2023-06-26T07:06:03;25.60;54.90
10903;DHT22;5504;47.312;11.060;2023-06-26T07:08:29;25.50;53.40
10903;DHT22;5504;47.312;11.060;2023-06-26T07:10:55;24.90;54.40
10903;DHT22;5504;47.312;11.060;2023-06-26T07:13:22;25.30;55.80
10903;DHT22;5504;47.312;11.060;2023-06-26T07:15:48;26.10;57.60
10903;DHT22;5504;47.312;11.060;2023-06-26T07:18:14;27.00;58.60
10903;DHT22;5504;47.312;11.060;2023-06-26T07:20:40;27.20;51.90
10903;DHT22;5504;47.312;11.060;2023-06-26T07:23:06;27.50;55.90
10903;DHT22;5504;47.312;11.060;2023-06-26T07:25:31;28.20;56.00
10903;DHT22;5504;47.312;11.060;2023-06-26T07:27:57;28.60;50.80
10903;DHT22;5504;47.312;11.060;2023-06-26T07:30:23;27.20;54.10
10903;DHT22;5504;47.312;11.060;2023-06-26T07:32:49;28.00;56.00
10903;DHT22;5504;47.312;11.060;2023-06-26T07:35:16;28.30;54.20
10903;DHT22;5504;47.312;11.060;2023-06-26T07:37:41;27.40;48.70
10903;DHT22;5504;47.312;11.060;2023-06-26T07:40:08;27.40;50.70
10903;DHT22;5504;47.312;11.060;2023-06-26T07:42:34;26.90;50.50
10903;DHT22;5504;47.312;11.060;2023-06-26T07:44:59;27.10;51.90
10903;DHT22;5504;47.312;11.060;2023-06-26T07:47:25;27.60;50.30
10903;DHT22;5504;47.312;11.060;2023-06-26T07:49:51;28.00;54.80
10903;DHT22;5504;47.312;11.060;2023-06-26T07:52:18;28.50;54.40
10903;DHT22;5504;47.312;11.060;2023-06-26T07:54:44;28.80;52.70
10903;DHT22;5504;47.312;11.060;2023-06-26T07:57:11;29.00;48.10
10903;DHT22;5504;47.312;11.060;2023-06-26T07:59:38;29.00;50.60
10903;DHT22;5504;47.312;11.060;2023-06-26T08:02:04;28.80;52.00
10903;DHT22;5504;47.312;11.060;2023-06-26T08:04:30;28.70;51.60
10903;DHT22;5504;47.312;11.060;2023-06-26T08:06:58;29.30;51.60
10903;DHT22;5504;47.312;11.060;2023-06-26T08:09:26;28.80;48.40
10903;DHT22;5504;47.312;11.060;2023-06-26T08:11:52;29.30;47.50
10903;DHT22;5504;47.312;11.060;2023-06-26T08:14:18;28.70;44.50
10903;DHT22;5504;47.312;11.060;2023-06-26T08:16:45;29.50;49.30
10903;DHT22;5504;47.312;11.060;2023-06-26T08:19:14;30.40;47.60
10903;DHT22;5504;47.312;11.060;2023-06-26T08:21:41;30.70;50.60
10903;DHT22;5504;47.312;11.060;2023-06-26T08:24:07;31.40;48.70
10903;DHT22;5504;47.312;11.060;2023-06-26T08:26:34;31.90;51.60
10903;DHT22;5504;47.312;11.060;2023-06-26T08:28:59;31.90;48.00
10903;DHT22;5504;47.312;11.060;2023-06-26T08:31:25;31.10;46.60
10903;DHT22;5504;47.312;11.060;2023-06-26T08:33:51;31.00;44.00
10903;DHT22;5504;47.312;11.060;2023-06-26T08:36:16;31.00;50.80
10903;DHT22;5504;47.312;11.060;2023-06-26T08:38:42;31.50;48.80
10903;DHT22;5504;47.312;11.060;2023-06-26T08:41:08;31.90;47.70
10903;DHT22;5504;47.312;11.060;2023-06-26T08:43:35;32.40;48.80
10903;DHT22;5504;47.312;11.060;2023-06-26T08:46:01;32.80;48.90
10903;DHT22;5504;47.312;11.060;2023-06-26T08:48:30;33.10;48.40
10903;DHT22;5504;47.312;11.060;2023-06-26T08:50:57;33.20;47.30
10903;DHT22;5504;47.312;11.060;2023-06-26T08:55:53;32.40;51.60
10903;DHT22;5504;47.312;11.060;2023-06-26T08:58:20;32.70;47.20
10903;DHT22;5504;47.312;11.060;2023-06-26T09:00:46;31.10;46.20
10903;DHT22;5504;47.312;11.060;2023-06-26T09:03:12;31.50;45.40
10903;DHT22;5504;47.312;11.060;2023-06-26T09:05:39;31.80;49.30
10903;DHT22;5504;47.312;11.060;2023-06-26T09:08:04;32.80;48.00
10903;DHT22;5504;47.312;11.060;2023-06-26T09:10:30;33.50;46.60
10903;DHT22;5504;47.312;11.060;2023-06-26T09:12:56;33.00;43.70
10903;DHT22;5504;47.312;11.060;2023-06-26T09:15:23;33.30;45.00
10903;DHT22;5504;47.312;11.060;2023-06-26T09:17:49;33.60;49.00
10903;DHT22;5504;47.312;11.060;2023-06-26T09:20:15;33.80;47.80
10903;DHT22;5504;47.312;11.060;2023-06-26T09:22:42;32.20;43.10
10903;DHT22;5504;47.312;11.060;2023-06-26T09:25:09;32.60;48.70
10903;DHT22;5504;47.312;11.060;2023-06-26T09:27:35;32.90;44.60
10903;DHT22;5504;47.312;11.060;2023-06-26T09:30:05;32.00;45.90
10903;DHT22;5504;47.312;11.060;2023-06-26T09:32:37;33.20;46.70
10903;DHT22;5504;47.312;11.060;2023-06-26T09:35:04;33.90;50.50
10903;DHT22;5504;47.312;11.060;2023-06-26T09:37:30;34.10;43.70
10903;DHT22;5504;47.312;11.060;2023-06-26T09:39:57;33.50;40.80
10903;DHT22;5504;47.312;11.060;2023-06-26T09:42:23;32.50;41.40
10903;DHT22;5504;47.312;11.060;2023-06-26T09:44:49;32.80;44.00
10903;DHT22;5504;47.312;11.060;2023-06-26T09:47:18;33.50;46.70
10903;DHT22;5504;47.312;11.060;2023-06-26T09:49:44;33.60;45.30
10903;DHT22;5504;47.312;11.060;2023-06-26T09:52:10;33.90;45.70
10903;DHT22;5504;47.312;11.060;2023-06-26T09:54:38;34.10;44.90
10903;DHT22;5504;47.312;11.060;2023-06-26T09:57:16;34.80;43.60
10903;DHT22;5504;47.312;11.060;2023-06-26T09:59:43;35.20;46.60
10903;DHT22;5504;47.312;11.060;2023-06-26T10:02:11;35.50;43.30
10903;DHT22;5504;47.312;11.060;2023-06-26T10:04:37;36.00;41.60
10903;DHT22;5504;47.312;11.060;2023-06-26T10:07:06;35.50;40.80
10903;DHT22;5504;47.312;11.060;2023-06-26T10:09:32;34.90;39.40
10903;DHT22;5504;47.312;11.060;2023-06-26T10:12:02;34.30;40.50
10903;DHT22;5504;47.312;11.060;2023-06-26T10:14:37;34.00;39.90
10903;DHT22;5504;47.312;11.060;2023-06-26T10:17:16;32.90;41.10
10903;DHT22;5504;47.312;11.060;2023-06-26T10:19:44;33.20;41.80
10903;DHT22;5504;47.312;11.060;2023-06-26T10:22:14;33.90;42.50
10903;DHT22;5504;47.312;11.060;2023-06-26T10:24:41;33.90;42.40
10903;DHT22;5504;47.312;11.060;2023-06-26T10:27:19;33.90;45.00
10903;DHT22;5504;47.312;11.060;2023-06-26T10:29:53;33.50;43.20
10903;DHT22;5504;47.312;11.060;2023-06-26T10:32:20;33.20;44.60
10903;DHT22;5504;47.312;11.060;2023-06-26T10:34:47;32.90;43.50
10903;DHT22;5504;47.312;11.060;2023-06-26T10:37:13;32.80;37.60
10903;DHT22;5504;47.312;11.060;2023-06-26T10:39:52;32.60;38.80
10903;DHT22;5504;47.312;11.060;2023-06-26T10:42:34;33.20;41.40
10903;DHT22;5504;47.312;11.060;2023-06-26T10:47:41;33.70;41.10
10903;DHT22;5504;47.312;11.060;2023-06-26T10:50:33;33.70;40.40
10903;DHT22;5504;47.312;11.060;2023-06-26T10:55:42;34.60;42.20
10903;DHT22;5504;47.312;11.060;2023-06-26T10:58:30;34.70;40.80
10903;DHT22;5504;47.312;11.060;2023-06-26T11:03:38;33.80;42.30
10903;DHT22;5504;47.312;11.060;2023-06-26T11:06:14;34.10;39.60
10903;DHT22;5504;47.312;11.060;2023-06-26T11:08:50;33.80;40.00
10903;DHT22;5504;47.312;11.060;2023-06-26T11:11:20;34.60;39.50
10903;DHT22;5504;47.312;11.060;2023-06-26T11:13:47;35.20;40.80
10903;DHT22;5504;47.312;11.060;2023-06-26T11:16:14;35.30;38.10
10903;DHT22;5504;47.312;11.060;2023-06-26T11:18:41;35.00;41.20
10903;DHT22;5504;47.312;11.060;2023-06-26T11:21:10;34.20;37.10
10903;DHT22;5504;47.312;11.060;2023-06-26T11:23:39;33.70;39.70
10903;DHT22;5504;47.312;11.060;2023-06-26T11:28:49;32.70;40.50
10903;DHT22;5504;47.312;11.060;2023-06-26T11:31:27;32.60;42.40
10903;DHT22;5504;47.312;11.060;2023-06-26T11:33:56;32.40;43.00
10903;DHT22;5504;47.312;11.060;2023-06-26T11:36:25;32.30;46.30
10903;DHT22;5504;47.312;11.060;2023-06-26T11:38:59;33.10;43.00
10903;DHT22;5504;47.312;11.060;2023-06-26T11:41:27;34.10;44.80
10903;DHT22;5504;47.312;11.060;2023-06-26T11:43:53;34.60;38.10
10903;DHT22;5504;47.312;11.060;2023-06-26T11:46:20;33.00;36.60
10903;DHT22;5504;47.312;11.060;2023-06-26T11:48:46;33.70;40.10
10903;DHT22;5504;47.312;11.060;2023-06-26T11:51:15;34.50;41.30
10903;DHT22;5504;47.312;11.060;2023-06-26T11:53:46;34.00;35.70
10903;DHT22;5504;47.312;11.060;2023-06-26T11:56:16;31.50;39.80
10903;DHT22;5504;47.312;11.060;2023-06-26T11:59:01;31.40;39.50
10903;DHT22;5504;47.312;11.060;2023-06-26T12:04:01;32.00;42.90
10903;DHT22;5504;47.312;11.060;2023-06-26T12:06:29;32.60;39.30
10903;DHT22;5504;47.312;11.060;2023-06-26T12:08:56;33.20;40.10
10903;DHT22;5504;47.312;11.060;2023-06-26T12:11:24;33.20;39.70
10903;DHT22;5504;47.312;11.060;2023-06-26T12:13:50;33.50;38.70
10903;DHT22;5504;47.312;11.060;2023-06-26T12:16:16;33.70;38.40
10903;DHT22;5504;47.312;11.060;2023-06-26T12:18:42;33.90;38.80
10903;DHT22;5504;47.312;11.060;2023-06-26T12:21:08;34.00;39.90
10903;DHT22;5504;47.312;11.060;2023-06-26T12:23:58;34.10;38.90
10903;DHT22;5504;47.312;11.060;2023-06-26T12:26:26;34.80;41.10
10903;DHT22;5504;47.312;11.060;2023-06-26T12:28:52;35.00;39.60
10903;DHT22;5504;47.312;11.060;2023-06-26T12:31:20;35.10;37.40
10903;DHT22;5504;47.312;11.060;2023-06-26T12:33:47;35.10;40.20
10903;DHT22;5504;47.312;11.060;2023-06-26T12:36:13;34.50;35.40
10903;DHT22;5504;47.312;11.060;2023-06-26T12:38:40;34.70;38.90
10903;DHT22;5504;47.312;11.060;2023-06-26T12:41:12;34.60;36.60
10903;DHT22;5504;47.312;11.060;2023-06-26T12:43:39;34.90;37.30
10903;DHT22;5504;47.312;11.060;2023-06-26T12:46:05;34.70;37.70
10903;DHT22;5504;47.312;11.060;2023-06-26T12:48:42;34.60;38.60
10903;DHT22;5504;47.312;11.060;2023-06-26T12:51:16;34.60;40.50
10903;DHT22;5504;47.312;11.060;2023-06-26T12:53:42;34.60;39.30
10903;DHT22;5504;47.312;11.060;2023-06-26T12:56:09;34.20;38.90
10903;DHT22;5504;47.312;11.060;2023-06-26T12:58:36;34.40;41.50
10903;DHT22;5504;47.312;11.060;2023-06-26T13:01:04;34.50;40.00
10903;DHT22;5504;47.312;11.060;2023-06-26T13:03:30;34.60;38.70
10903;DHT22;5504;47.312;11.060;2023-06-26T13:05:55;34.70;38.70
10903;DHT22;5504;47.312;11.060;2023-06-26T13:08:21;34.40;39.70
10903;DHT22;5504;47.312;11.060;2023-06-26T13:10:47;33.80;39.70
10903;DHT22;5504;47.312;11.060;2023-06-26T13:13:12;33.80;40.50
10903;DHT22;5504;47.312;11.060;2023-06-26T13:15:38;33.90;39.60
10903;DHT22;5504;47.312;11.060;2023-06-26T13:18:04;34.30;38.50
10903;DHT22;5504;47.312;11.060;2023-06-26T13:20:30;34.20;37.30
10903;DHT22;5504;47.312;11.060;2023-06-26T13:22:55;34.50;40.20
10903;DHT22;5504;47.312;11.060;2023-06-26T13:25:22;34.30;39.30
10903;DHT22;5504;47.312;11.060;2023-06-26T13:27:48;34.00;35.20
10903;DHT22;5504;47.312;11.060;2023-06-26T13:30:15;33.40;35.40
10903;DHT22;5504;47.312;11.060;2023-06-26T13:32:40;33.20;36.50
10903;DHT22;5504;47.312;11.060;2023-06-26T13:35:06;34.00;39.70
10903;DHT22;5504;47.312;11.060;2023-06-26T13:37:32;34.50;40.10
10903;DHT22;5504;47.312;11.060;2023-06-26T13:40:00;34.30;39.00
10903;DHT22;5504;47.312;11.060;2023-06-26T13:42:27;34.70;39.40
10903;DHT22;5504;47.312;11.060;2023-06-26T13:44:53;34.30;36.20
10903;DHT22;5504;47.312;11.060;2023-06-26T13:47:19;34.30;38.90
10903;DHT22;5504;47.312;11.060;2023-06-26T13:49:44;33.70;38.50
10903;DHT22;5504;47.312;11.060;2023-06-26T13:52:10;33.40;38.10
10903;DHT22;5504;47.312;11.060;2023-06-26T13:54:36;33.40;39.00
10903;DHT22;5504;47.312;11.060;2023-06-26T13:57:07;33.30;38.90
10903;DHT22;5504;47.312;11.060;2023-06-26T13:59:33;33.10;39.90
10903;DHT22;5504;47.312;11.060;2023-06-26T14:01:59;33.10;38.30
10903;DHT22;5504;47.312;11.060;2023-06-26T14:04:25;33.40;40.30
10903;DHT22;5504;47.312;11.060;2023-06-26T14:06:51;32.60;39.00
10903;DHT22;5504;47.312;11.060;2023-06-26T14:09:17;32.10;36.70
10903;DHT22;5504;47.312;11.060;2023-06-26T14:11:44;32.70;41.70
10903;DHT22;5504;47.312;11.060;2023-06-26T14:14:09;33.20;41.90
10903;DHT22;5504;47.312;11.060;2023-06-26T14:16:35;33.60;40.00
10903;DHT22;5504;47.312;11.060;2023-06-26T14:19:01;33.80;38.90
10903;DHT22;5504;47.312;11.060;2023-06-26T14:21:27;33.70;39.60
10903;DHT22;5504;47.312;11.060;2023-06-26T14:23:57;34.10;39.70
10903;DHT22;5504;47.312;11.060;2023-06-26T14:26:22;34.10;39.40
10903;DHT22;5504;47.312;11.060;2023-06-26T14:28:48;34.20;37.40
10903;DHT22;5504;47.312;11.060;2023-06-26T14:31:14;34.40;38.60
10903;DHT22;5504;47.312;11.060;2023-06-26T14:33:39;34.60;39.00
10903;DHT22;5504;47.312;11.060;2023-06-26T14:36:05;34.40;39.60
10903;DHT22;5504;47.312;11.060;2023-06-26T14:38:31;34.30;39.00
10903;DHT22;5504;47.312;11.060;2023-06-26T14:40:56;34.00;37.80
10903;DHT22;5504;47.312;11.060;2023-06-26T14:43:22;34.00;39.50
10903;DHT22;5504;47.312;11.060;2023-06-26T14:45:47;34.20;39.00
10903;DHT22;5504;47.312;11.060;2023-06-26T14:48:13;34.50;40.10
10903;DHT22;5504;47.312;11.060;2023-06-26T14:50:39;34.40;39.40
10903;DHT22;5504;47.312;11.060;2023-06-26T14:53:05;34.30;37.80
10903;DHT22;5504;47.312;11.060;2023-06-26T14:55:31;34.30;37.90
10903;DHT22;5504;47.312;11.060;2023-06-26T14:57:56;34.00;39.40
10903;DHT22;5504;47.312;11.060;2023-06-26T15:00:22;34.10;40.90
10903;DHT22;5504;47.312;11.060;2023-06-26T15:02:48;33.50;39.00
10903;DHT22;5504;47.312;11.060;2023-06-26T15:05:14;33.70;40.30
10903;DHT22;5504;47.312;11.060;2023-06-26T15:07:40;33.20;37.60
10903;DHT22;5504;47.312;11.060;2023-06-26T15:10:06;32.40;40.80
10903;DHT22;5504;47.312;11.060;2023-06-26T15:12:32;33.00;41.80
10903;DHT22;5504;47.312;11.060;2023-06-26T15:14:58;33.20;40.00
10903;DHT22;5504;47.312;11.060;2023-06-26T15:17:23;33.20;41.50
10903;DHT22;5504;47.312;11.060;2023-06-26T15:19:49;33.20;40.40
10903;DHT22;5504;47.312;11.060;2023-06-26T15:22:17;32.70;39.50
10903;DHT22;5504;47.312;11.060;2023-06-26T15:24:43;32.60;40.30
10903;DHT22;5504;47.312;11.060;2023-06-26T15:27:09;31.80;40.00
10903;DHT22;5504;47.312;11.060;2023-06-26T15:29:34;31.70;40.70
10903;DHT22;5504;47.312;11.060;2023-06-26T15:32:00;32.00;41.70
10903;DHT22;5504;47.312;11.060;2023-06-26T15:34:26;32.20;39.60
10903;DHT22;5504;47.312;11.060;2023-06-26T15:36:51;32.20;41.00
10903;DHT22;5504;47.312;11.060;2023-06-26T15:39:17;32.50;41.20
10903;DHT22;5504;47.312;11.060;2023-06-26T15:41:43;32.60;40.60
10903;DHT22;5504;47.312;11.060;2023-06-26T15:44:09;32.80;40.50
10903;DHT22;5504;47.312;11.060;2023-06-26T15:46:35;33.20;40.90
10903;DHT22;5504;47.312;11.060;2023-06-26T15:49:01;33.20;37.10